sensor_id;sensor_type;location;lat;lon;timestamp;P1;durP1;ratioP1;P2;durP2;ratioP2
48987;SDS011;34799;51.440;-2.534;2023-01-23T00:01:28;20.58;;;8.77;;
48987;SDS011;34799;51.440;-2.534;2023-01-23T00:03:58;19.33;;;9.20;;
48987;SDS011;34799;51.440;-2.534;2023-01-23T00:06:26;18.23;;;9.18;;
48987;SDS011;34799;51.440;-2.534;2023-01-23T00:08:53;18.42;;;9.63;;
48987;SDS011;34799;51.440;-2.534;2023-01-23T00:11:25;20.80;;;10.23;;
48987;SDS011;34799;51.440;-2.534;2023-01-23T00:13:54;18.40;;;9.00;;
48987;SDS011;34799;51.440;-2.534;2023-01-23T00:16:24;16.33;;;8.57;;
48987;SDS011;34799;51.440;-2.534;2023-01-23T00:18:52;17.30;;;9.05;;
48987;SDS011;34799;51.440;-2.534;2023-01-23T00:21:21;15.90;;;8.27;;
48987;SDS011;34799;51.440;-2.534;2023-01-23T00:23:52;14.88;;;8.00;;
48987;SDS011;34799;51.440;-2.534;2023-01-23T00:26:23;16.95;;;8.30;;
48987;SDS011;34799;51.440;-2.534;2023-01-23T00:28:52;13.77;;;8.05;;
48987;SDS011;34799;51.440;-2.534;2023-01-23T00:31:21;17.05;;;8.05;;
48987;SDS011;34799;51.440;-2.534;2023-01-23T00:33:57;17.38;;;8.48;;
48987;SDS011;34799;51.440;-2.534;2023-01-23T00:36:27;12.93;;;7.93;;
48987;SDS011;34799;51.440;-2.534;2023-01-23T00:39:02;16.98;;;8.82;;
48987;SDS011;34799;51.440;-2.534;2023-01-23T00:41:32;15.25;;;8.15;;
48987;SDS011;34799;51.440;-2.534;2023-01-23T00:43:59;13.73;;;7.53;;
48987;SDS011;34799;51.440;-2.534;2023-01-23T00:46:27;16.33;;;8.90;;
48987;SDS011;34799;51.440;-2.534;2023-01-23T00:48:55;12.18;;;7.82;;
48987;SDS011;34799;51.440;-2.534;2023-01-23T00:51:22;13.60;;;7.32;;
48987;SDS011;34799;51.440;-2.534;2023-01-23T00:53:49;16.15;;;8.43;;
48987;SDS011;34799;51.440;-2.534;2023-01-23T00:56:16;14.55;;;7.90;;
48987;SDS011;34799;51.440;-2.534;2023-01-23T00:58:45;17.50;;;8.25;;
48987;SDS011;34799;51.440;-2.534;2023-01-23T01:01:13;13.65;;;7.70;;
48987;SDS011;34799;51.440;-2.534;2023-01-23T01:03:42;15.60;;;7.72;;
48987;SDS011;34799;51.440;-2.534;2023-01-23T01:06:10;14.68;;;8.45;;
48987;SDS011;34799;51.440;-2.534;2023-01-23T01:08:38;17.95;;;8.55;;
48987;SDS011;34799;51.440;-2.534;2023-01-23T01:11:06;14.88;;;7.45;;
48987;SDS011;34799;51.440;-2.534;2023-01-23T01:13:33;12.93;;;6.50;;
48987;SDS011;34799;51.440;-2.534;2023-01-23T01:16:00;14.35;;;7.30;;
48987;SDS011;34799;51.440;-2.534;2023-01-23T01:18:27;16.08;;;8.95;;
48987;SDS011;34799;51.440;-2.534;2023-01-23T01:20:56;15.68;;;7.75;;
48987;SDS011;34799;51.440;-2.534;2023-01-23T01:23:23;13.57;;;7.43;;
48987;SDS011;34799;51.440;-2.534;2023-01-23T01:25:51;14.15;;;7.63;;
48987;SDS011;34799;51.440;-2.534;2023-01-23T01:28:19;13.85;;;7.03;;
48987;SDS011;34799;51.440;-2.534;2023-01-23T01:30:48;13.07;;;7.25;;
48987;SDS011;34799;51.440;-2.534;2023-01-23T01:33:15;13.52;;;7.15;;
48987;SDS011;34799;51.440;-2.534;2023-01-23T01:35:42;13.93;;;7.65;;
48987;SDS011;34799;51.440;-2.534;2023-01-23T01:38:09;10.55;;;6.60;;
48987;SDS011;34799;51.440;-2.534;2023-01-23T01:40:37;12.52;;;6.68;;
48987;SDS011;34799;51.440;-2.534;2023-01-23T01:43:08;14.25;;;8.18;;
48987;SDS011;34799;51.440;-2.534;2023-01-23T01:48:42;24.45;;;8.07;;
48987;SDS011;34799;51.440;-2.534;2023-01-23T01:51:32;14.02;;;6.85;;
48987;SDS011;34799;51.440;-2.534;2023-01-23T01:54:10;14.10;;;7.55;;
48987;SDS011;34799;51.440;-2.534;2023-01-23T01:59:21;14.80;;;7.03;;
48987;SDS011;34799;51.440;-2.534;2023-01-23T02:01:55;13.32;;;7.40;;
48987;SDS011;34799;51.440;-2.534;2023-01-23T02:04:35;12.77;;;7.15;;
48987;SDS011;34799;51.440;-2.534;2023-01-23T02:07:06;15.27;;;7.80;;
48987;SDS011;34799;51.440;-2.534;2023-01-23T02:09:36;14.80;;;7.75;;
48987;SDS011;34799;51.440;-2.534;2023-01-23T02:12:03;13.75;;;7.07;;
48987;SDS011;34799;51.440;-2.534;2023-01-23T02:14:30;16.35;;;7.60;;
48987;SDS011;34799;51.440;-2.534;2023-01-23T02:16:58;12.48;;;7.70;;
48987;SDS011;34799;51.440;-2.534;2023-01-23T02:25:05;12.88;;;7.72;;
48987;SDS011;34799;51.440;-2.534;2023-01-23T02:27:36;13.85;;;7.20;;
48987;SDS011;34799;51.440;-2.534;2023-01-23T02:30:03;14.00;;;6.70;;
48987;SDS011;34799;51.440;-2.534;2023-01-23T02:32:33;13.00;;;6.55;;
48987;SDS011;34799;51.440;-2.534;2023-01-23T02:35:04;13.52;;;6.85;;
48987;SDS011;34799;51.440;-2.534;2023-01-23T02:37:39;12.18;;;7.22;;
48987;SDS011;34799;51.440;-2.534;2023-01-23T02:40:10;15.15;;;7.03;;
48987;SDS011;34799;51.440;-2.534;2023-01-23T02:42:39;14.00;;;6.45;;
48987;SDS011;34799;51.440;-2.534;2023-01-23T02:45:11;13.23;;;6.85;;
48987;SDS011;34799;51.440;-2.534;2023-01-23T02:47:39;13.13;;;6.90;;
48987;SDS011;34799;51.440;-2.534;2023-01-23T02:50:07;12.68;;;6.85;;
48987;SDS011;34799;51.440;-2.534;2023-01-23T02:52:35;15.65;;;7.28;;
48987;SDS011;34799;51.440;-2.534;2023-01-23T02:55:03;10.52;;;6.28;;
48987;SDS011;34799;51.440;-2.534;2023-01-23T02:57:30;13.23;;;7.20;;
48987;SDS011;34799;51.440;-2.534;2023-01-23T02:59:58;13.98;;;7.13;;
48987;SDS011;34799;51.440;-2.534;2023-01-23T03:02:46;11.55;;;7.28;;
48987;SDS011;34799;51.440;-2.534;2023-01-23T03:05:17;12.57;;;7.00;;
48987;SDS011;34799;51.440;-2.534;2023-01-23T03:07:45;13.88;;;7.05;;
48987;SDS011;34799;51.440;-2.534;2023-01-23T03:10:12;13.60;;;7.40;;
48987;SDS011;34799;51.440;-2.534;2023-01-23T03:12:42;12.32;;;6.78;;
48987;SDS011;34799;51.440;-2.534;2023-01-23T03:15:12;12.48;;;6.50;;
48987;SDS011;34799;51.440;-2.534;2023-01-23T03:17:39;13.60;;;6.68;;
48987;SDS011;34799;51.440;-2.534;2023-01-23T03:20:06;12.93;;;7.00;;
48987;SDS011;34799;51.440;-2.534;2023-01-23T03:22:34;16.73;;;6.90;;
48987;SDS011;34799;51.440;-2.534;2023-01-23T03:25:02;12.45;;;6.78;;
48987;SDS011;34799;51.440;-2.534;2023-01-23T03:27:29;11.65;;;6.93;;
48987;SDS011;34799;51.440;-2.534;2023-01-23T03:29:57;16.10;;;7.28;;
48987;SDS011;34799;51.440;-2.534;2023-01-23T03:32:42;13.63;;;7.32;;
48987;SDS011;34799;51.440;-2.534;2023-01-23T03:35:10;14.63;;;6.65;;
48987;SDS011;34799;51.440;-2.534;2023-01-23T03:37:52;13.15;;;7.47;;
48987;SDS011;34799;51.440;-2.534;2023-01-23T03:40:23;15.00;;;6.57;;
48987;SDS011;34799;51.440;-2.534;2023-01-23T03:43:12;15.00;;;7.90;;
48987;SDS011;34799;51.440;-2.534;2023-01-23T03:45:46;13.80;;;7.22;;
48987;SDS011;34799;51.440;-2.534;2023-01-23T03:48:13;13.73;;;7.13;;
48987;SDS011;34799;51.440;-2.534;2023-01-23T03:50:43;14.55;;;7.38;;
48987;SDS011;34799;51.440;-2.534;2023-01-23T03:53:11;13.05;;;7.40;;
48987;SDS011;34799;51.440;-2.534;2023-01-23T03:55:38;12.65;;;6.97;;
48987;SDS011;34799;51.440;-2.534;2023-01-23T03:58:05;10.95;;;6.18;;
48987;SDS011;34799;51.440;-2.534;2023-01-23T04:00:34;11.95;;;6.32;;
48987;SDS011;34799;51.440;-2.534;2023-01-23T04:03:04;14.52;;;7.20;;
48987;SDS011;34799;51.440;-2.534;2023-01-23T04:05:32;12.98;;;7.68;;
48987;SDS011;34799;51.440;-2.534;2023-01-23T04:08:01;13.25;;;7.28;;
48987;SDS011;34799;51.440;-2.534;2023-01-23T04:10:29;15.95;;;7.47;;
48987;SDS011;34799;51.440;-2.534;2023-01-23T04:13:04;14.85;;;7.50;;
48987;SDS011;34799;51.440;-2.534;2023-01-23T04:15:32;12.70;;;7.75;;
48987;SDS011;34799;51.440;-2.534;2023-01-23T04:18:02;11.00;;;7.07;;
48987;SDS011;34799;51.440;-2.534;2023-01-23T04:20:29;14.32;;;6.72;;
48987;SDS011;34799;51.440;-2.534;2023-01-23T04:22:57;15.15;;;7.38;;
48987;SDS011;34799;51.440;-2.534;2023-01-23T04:25:26;13.25;;;6.18;;
48987;SDS011;34799;51.440;-2.534;2023-01-23T04:27:55;13.98;;;7.13;;
48987;SDS011;34799;51.440;-2.534;2023-01-23T04:30:22;12.60;;;7.32;;
48987;SDS011;34799;51.440;-2.534;2023-01-23T04:32:49;14.85;;;7.75;;
48987;SDS011;34799;51.440;-2.534;2023-01-23T04:35:18;14.80;;;7.30;;
48987;SDS011;34799;51.440;-2.534;2023-01-23T04:37:45;12.48;;;6.78;;
48987;SDS011;34799;51.440;-2.534;2023-01-23T04:40:13;12.95;;;6.78;;
48987;SDS011;34799;51.440;-2.534;2023-01-23T04:42:50;14.75;;;7.38;;
48987;SDS011;34799;51.440;-2.534;2023-01-23T04:45:32;11.90;;;6.60;;
48987;SDS011;34799;51.440;-2.534;2023-01-23T04:48:13;14.75;;;6.80;;
48987;SDS011;34799;51.440;-2.534;2023-01-23T04:50:42;12.55;;;7.00;;
48987;SDS011;34799;51.440;-2.534;2023-01-23T04:53:09;12.68;;;7.13;;
48987;SDS011;34799;51.440;-2.534;2023-01-23T04:55:37;12.23;;;7.22;;
48987;SDS011;34799;51.440;-2.534;2023-01-23T04:58:06;12.85;;;6.05;;
48987;SDS011;34799;51.440;-2.534;2023-01-23T05:00:36;13.35;;;7.10;;
48987;SDS011;34799;51.440;-2.534;2023-01-23T05:03:03;10.82;;;6.47;;
48987;SDS011;34799;51.440;-2.534;2023-01-23T05:05:31;12.90;;;6.75;;
48987;SDS011;34799;51.440;-2.534;2023-01-23T05:08:01;14.02;;;6.35;;
48987;SDS011;34799;51.440;-2.534;2023-01-23T05:10:29;14.23;;;7.22;;
48987;SDS011;34799;51.440;-2.534;2023-01-23T05:13:02;14.70;;;7.07;;
48987;SDS011;34799;51.440;-2.534;2023-01-23T05:15:29;10.13;;;5.82;;
48987;SDS011;34799;51.440;-2.534;2023-01-23T05:17:57;12.57;;;6.70;;
48987;SDS011;34799;51.440;-2.534;2023-01-23T05:20:24;15.40;;;7.75;;
48987;SDS011;34799;51.440;-2.534;2023-01-23T05:22:54;13.60;;;6.90;;
48987;SDS011;34799;51.440;-2.534;2023-01-23T05:25:45;15.65;;;8.13;;
48987;SDS011;34799;51.440;-2.534;2023-01-23T05:28:13;14.40;;;6.63;;
48987;SDS011;34799;51.440;-2.534;2023-01-23T05:30:46;12.55;;;7.75;;
48987;SDS011;34799;51.440;-2.534;2023-01-23T05:33:32;15.93;;;6.82;;
48987;SDS011;34799;51.440;-2.534;2023-01-23T05:36:00;13.02;;;6.97;;
48987;SDS011;34799;51.440;-2.534;2023-01-23T05:38:27;22.10;;;8.15;;
48987;SDS011;34799;51.440;-2.534;2023-01-23T05:40:54;13.82;;;7.30;;
48987;SDS011;34799;51.440;-2.534;2023-01-23T05:43:47;11.40;;;6.53;;
48987;SDS011;34799;51.440;-2.534;2023-01-23T05:46:34;14.15;;;7.15;;
48987;SDS011;34799;51.440;-2.534;2023-01-23T05:49:02;13.05;;;6.75;;
48987;SDS011;34799;51.440;-2.534;2023-01-23T05:51:29;15.32;;;7.93;;
48987;SDS011;34799;51.440;-2.534;2023-01-23T05:53:59;13.07;;;7.10;;
48987;SDS011;34799;51.440;-2.534;2023-01-23T05:56:28;13.85;;;7.15;;
48987;SDS011;34799;51.440;-2.534;2023-01-23T05:59:14;14.23;;;6.80;;
48987;SDS011;34799;51.440;-2.534;2023-01-23T06:02:07;12.25;;;6.97;;
48987;SDS011;34799;51.440;-2.534;2023-01-23T06:05:13;10.43;;;6.25;;
48987;SDS011;34799;51.440;-2.534;2023-01-23T06:07:56;13.25;;;6.97;;
48987;SDS011;34799;51.440;-2.534;2023-01-23T06:10:24;13.60;;;7.45;;
48987;SDS011;34799;51.440;-2.534;2023-01-23T06:12:52;13.25;;;6.65;;
48987;SDS011;34799;51.440;-2.534;2023-01-23T06:15:20;12.80;;;6.65;;
48987;SDS011;34799;51.440;-2.534;2023-01-23T06:17:50;11.98;;;6.60;;
48987;SDS011;34799;51.440;-2.534;2023-01-23T06:20:19;12.50;;;7.20;;
48987;SDS011;34799;51.440;-2.534;2023-01-23T06:22:47;13.27;;;7.60;;
48987;SDS011;34799;51.440;-2.534;2023-01-23T06:25:14;15.10;;;7.40;;
48987;SDS011;34799;51.440;-2.534;2023-01-23T06:27:43;14.75;;;6.68;;
48987;SDS011;34799;51.440;-2.534;2023-01-23T06:30:12;14.45;;;7.22;;
48987;SDS011;34799;51.440;-2.534;2023-01-23T06:32:42;14.38;;;7.38;;
48987;SDS011;34799;51.440;-2.534;2023-01-23T06:35:12;12.65;;;6.65;;
48987;SDS011;34799;51.440;-2.534;2023-01-23T06:37:41;14.25;;;7.28;;
48987;SDS011;34799;51.440;-2.534;2023-01-23T06:40:13;15.40;;;7.55;;
48987;SDS011;34799;51.440;-2.534;2023-01-23T06:42:48;13.77;;;8.27;;
48987;SDS011;34799;51.440;-2.534;2023-01-23T06:45:16;14.02;;;7.03;;
48987;SDS011;34799;51.440;-2.534;2023-01-23T06:47:44;15.27;;;6.88;;
48987;SDS011;34799;51.440;-2.534;2023-01-23T06:50:11;16.63;;;7.57;;
48987;SDS011;34799;51.440;-2.534;2023-01-23T06:52:38;13.07;;;6.80;;
48987;SDS011;34799;51.440;-2.534;2023-01-23T06:55:06;12.75;;;6.97;;
48987;SDS011;34799;51.440;-2.534;2023-01-23T06:57:34;15.80;;;8.00;;
48987;SDS011;34799;51.440;-2.534;2023-01-23T07:00:02;15.82;;;8.02;;
48987;SDS011;34799;51.440;-2.534;2023-01-23T07:02:32;14.05;;;7.85;;
48987;SDS011;34799;51.440;-2.534;2023-01-23T07:05:00;16.40;;;7.30;;
48987;SDS011;34799;51.440;-2.534;2023-01-23T07:07:27;15.90;;;7.32;;
48987;SDS011;34799;51.440;-2.534;2023-01-23T07:09:54;13.80;;;6.95;;
48987;SDS011;34799;51.440;-2.534;2023-01-23T07:12:23;16.88;;;6.85;;
48987;SDS011;34799;51.440;-2.534;2023-01-23T07:14:51;14.90;;;6.95;;
48987;SDS011;34799;51.440;-2.534;2023-01-23T07:17:23;13.88;;;6.80;;
48987;SDS011;34799;51.440;-2.534;2023-01-23T07:19:52;14.25;;;6.90;;
48987;SDS011;34799;51.440;-2.534;2023-01-23T07:22:20;13.52;;;7.28;;
48987;SDS011;34799;51.440;-2.534;2023-01-23T07:24:48;15.10;;;6.78;;
48987;SDS011;34799;51.440;-2.534;2023-01-23T07:27:15;11.95;;;6.93;;
48987;SDS011;34799;51.440;-2.534;2023-01-23T07:29:42;12.52;;;6.07;;
48987;SDS011;34799;51.440;-2.534;2023-01-23T07:32:10;15.77;;;7.40;;
48987;SDS011;34799;51.440;-2.534;2023-01-23T07:34:37;16.08;;;7.40;;
48987;SDS011;34799;51.440;-2.534;2023-01-23T07:37:04;14.38;;;7.10;;
48987;SDS011;34799;51.440;-2.534;2023-01-23T07:39:31;13.90;;;7.38;;
48987;SDS011;34799;51.440;-2.534;2023-01-23T07:41:58;15.00;;;7.13;;
48987;SDS011;34799;51.440;-2.534;2023-01-23T07:44:28;11.98;;;6.82;;
48987;SDS011;34799;51.440;-2.534;2023-01-23T07:46:55;14.85;;;7.85;;
48987;SDS011;34799;51.440;-2.534;2023-01-23T07:49:22;15.93;;;6.80;;
48987;SDS011;34799;51.440;-2.534;2023-01-23T07:51:49;12.90;;;7.43;;
48987;SDS011;34799;51.440;-2.534;2023-01-23T07:54:16;13.70;;;7.78;;
48987;SDS011;34799;51.440;-2.534;2023-01-23T07:56:43;16.52;;;7.63;;
48987;SDS011;34799;51.440;-2.534;2023-01-23T07:59:12;11.13;;;6.30;;
48987;SDS011;34799;51.440;-2.534;2023-01-23T08:01:39;13.00;;;6.85;;
48987;SDS011;34799;51.440;-2.534;2023-01-23T08:04:06;12.65;;;6.78;;
48987;SDS011;34799;51.440;-2.534;2023-01-23T08:06:33;16.23;;;8.02;;
48987;SDS011;34799;51.440;-2.534;2023-01-23T08:09:01;15.15;;;7.43;;
48987;SDS011;34799;51.440;-2.534;2023-01-23T08:11:30;11.77;;;6.90;;
48987;SDS011;34799;51.440;-2.534;2023-01-23T08:13:59;11.27;;;6.57;;
48987;SDS011;34799;51.440;-2.534;2023-01-23T08:16:26;12.48;;;6.50;;
48987;SDS011;34799;51.440;-2.534;2023-01-23T08:18:53;13.73;;;6.40;;
48987;SDS011;34799;51.440;-2.534;2023-01-23T08:21:20;11.57;;;6.80;;
48987;SDS011;34799;51.440;-2.534;2023-01-23T08:23:48;12.23;;;6.43;;
48987;SDS011;34799;51.440;-2.534;2023-01-23T08:26:16;12.60;;;6.65;;
48987;SDS011;34799;51.440;-2.534;2023-01-23T08:28:44;11.25;;;6.05;;
48987;SDS011;34799;51.440;-2.534;2023-01-23T08:31:11;13.27;;;6.18;;
48987;SDS011;34799;51.440;-2.534;2023-01-23T08:33:40;11.23;;;6.20;;
48987;SDS011;34799;51.440;-2.534;2023-01-23T08:36:09;12.55;;;6.65;;
48987;SDS011;34799;51.440;-2.534;2023-01-23T08:38:38;11.63;;;6.20;;
48987;SDS011;34799;51.440;-2.534;2023-01-23T08:41:05;12.32;;;6.70;;
48987;SDS011;34799;51.440;-2.534;2023-01-23T08:43:33;13.98;;;6.70;;
48987;SDS011;34799;51.440;-2.534;2023-01-23T08:46:01;12.20;;;6.28;;
48987;SDS011;34799;51.440;-2.534;2023-01-23T08:48:28;11.82;;;5.75;;
48987;SDS011;34799;51.440;-2.534;2023-01-23T08:50:59;10.43;;;6.22;;
48987;SDS011;34799;51.440;-2.534;2023-01-23T08:53:32;13.20;;;6.27;;
48987;SDS011;34799;51.440;-2.534;2023-01-23T08:56:01;11.70;;;5.80;;
48987;SDS011;34799;51.440;-2.534;2023-01-23T08:58:29;13.43;;;5.97;;
48987;SDS011;34799;51.440;-2.534;2023-01-23T09:00:57;11.88;;;6.90;;
48987;SDS011;34799;51.440;-2.534;2023-01-23T09:03:25;9.98;;;5.78;;
48987;SDS011;34799;51.440;-2.534;2023-01-23T09:05:52;13.07;;;7.40;;
48987;SDS011;34799;51.440;-2.534;2023-01-23T09:08:20;10.55;;;6.25;;
48987;SDS011;34799;51.440;-2.534;2023-01-23T09:10:47;11.57;;;6.03;;
48987;SDS011;34799;51.440;-2.534;2023-01-23T09:13:14;12.30;;;6.10;;
48987;SDS011;34799;51.440;-2.534;2023-01-23T09:15:41;10.90;;;5.97;;
48987;SDS011;34799;51.440;-2.534;2023-01-23T09:18:08;13.32;;;7.10;;
48987;SDS011;34799;51.440;-2.534;2023-01-23T09:20:37;12.05;;;6.38;;
48987;SDS011;34799;51.440;-2.534;2023-01-23T09:23:04;13.68;;;6.20;;
48987;SDS011;34799;51.440;-2.534;2023-01-23T09:25:31;13.77;;;6.00;;
48987;SDS011;34799;51.440;-2.534;2023-01-23T09:27:58;8.50;;;5.13;;
48987;SDS011;34799;51.440;-2.534;2023-01-23T09:30:25;12.55;;;6.57;;
48987;SDS011;34799;51.440;-2.534;2023-01-23T09:32:55;12.10;;;6.18;;
48987;SDS011;34799;51.440;-2.534;2023-01-23T09:35:22;13.13;;;6.47;;
48987;SDS011;34799;51.440;-2.534;2023-01-23T09:37:49;11.77;;;6.05;;
48987;SDS011;34799;51.440;-2.534;2023-01-23T09:40:30;9.38;;;5.90;;
48987;SDS011;34799;51.440;-2.534;2023-01-23T09:43:24;13.27;;;6.63;;
48987;SDS011;34799;51.440;-2.534;2023-01-23T09:46:02;34.20;;;9.13;;
48987;SDS011;34799;51.440;-2.534;2023-01-23T09:51:11;12.00;;;6.35;;
48987;SDS011;34799;51.440;-2.534;2023-01-23T09:53:46;13.73;;;6.05;;
48987;SDS011;34799;51.440;-2.534;2023-01-23T09:59:01;10.23;;;5.53;;
48987;SDS011;34799;51.440;-2.534;2023-01-23T10:01:30;12.63;;;5.70;;
48987;SDS011;34799;51.440;-2.534;2023-01-23T10:03:58;11.50;;;5.70;;
48987;SDS011;34799;51.440;-2.534;2023-01-23T10:06:28;10.75;;;5.82;;
48987;SDS011;34799;51.440;-2.534;2023-01-23T10:11:58;12.23;;;6.82;;
48987;SDS011;34799;51.440;-2.534;2023-01-23T10:17:36;9.85;;;5.28;;
48987;SDS011;34799;51.440;-2.534;2023-01-23T10:20:16;11.02;;;5.43;;
48987;SDS011;34799;51.440;-2.534;2023-01-23T10:26:07;13.40;;;6.10;;
48987;SDS011;34799;51.440;-2.534;2023-01-23T10:29:40;11.27;;;5.53;;
48987;SDS011;34799;51.440;-2.534;2023-01-23T10:35:42;11.25;;;5.13;;
48987;SDS011;34799;51.440;-2.534;2023-01-23T10:38:36;11.45;;;5.22;;
48987;SDS011;34799;51.440;-2.534;2023-01-23T10:41:14;9.50;;;4.90;;
48987;SDS011;34799;51.440;-2.534;2023-01-23T10:44:16;9.63;;;4.60;;
48987;SDS011;34799;51.440;-2.534;2023-01-23T10:47:14;11.57;;;5.20;;
48987;SDS011;34799;51.440;-2.534;2023-01-23T10:50:15;9.33;;;4.77;;
48987;SDS011;34799;51.440;-2.534;2023-01-23T10:53:28;8.50;;;4.60;;
48987;SDS011;34799;51.440;-2.534;2023-01-23T10:56:13;6.95;;;3.45;;
48987;SDS011;34799;51.440;-2.534;2023-01-23T10:59:04;7.13;;;3.97;;
48987;SDS011;34799;51.440;-2.534;2023-01-23T11:02:01;10.77;;;4.40;;
48987;SDS011;34799;51.440;-2.534;2023-01-23T11:04:52;7.28;;;3.72;;
48987;SDS011;34799;51.440;-2.534;2023-01-23T11:07:44;8.90;;;3.50;;
48987;SDS011;34799;51.440;-2.534;2023-01-23T11:10:48;7.60;;;4.07;;
48987;SDS011;34799;51.440;-2.534;2023-01-23T11:13:32;10.27;;;3.95;;
48987;SDS011;34799;51.440;-2.534;2023-01-23T11:16:03;7.65;;;3.58;;
48987;SDS011;34799;51.440;-2.534;2023-01-23T11:18:54;7.07;;;3.55;;
48987;SDS011;34799;51.440;-2.534;2023-01-23T11:21:53;8.18;;;3.65;;
48987;SDS011;34799;51.440;-2.534;2023-01-23T11:24:38;7.13;;;3.30;;
48987;SDS011;34799;51.440;-2.534;2023-01-23T11:27:17;7.43;;;3.50;;
48987;SDS011;34799;51.440;-2.534;2023-01-23T11:33:21;6.07;;;3.13;;
48987;SDS011;34799;51.440;-2.534;2023-01-23T11:41:36;6.68;;;3.30;;
48987;SDS011;34799;51.440;-2.534;2023-01-23T11:44:07;8.55;;;3.47;;
48987;SDS011;34799;51.440;-2.534;2023-01-23T12:01:11;10.10;;;4.07;;
48987;SDS011;34799;51.440;-2.534;2023-01-23T12:12:46;6.88;;;3.80;;
48987;SDS011;34799;51.440;-2.534;2023-01-23T12:19:02;7.68;;;3.90;;
48987;SDS011;34799;51.440;-2.534;2023-01-23T12:25:12;7.95;;;4.40;;
48987;SDS011;34799;51.440;-2.534;2023-01-23T12:31:42;11.00;;;4.38;;
48987;SDS011;34799;51.440;-2.534;2023-01-23T12:41:01;7.70;;;4.18;;
48987;SDS011;34799;51.440;-2.534;2023-01-23T12:43:49;10.27;;;4.85;;
48987;SDS011;34799;51.440;-2.534;2023-01-23T12:46:56;8.38;;;3.47;;
48987;SDS011;34799;51.440;-2.534;2023-01-23T12:49:53;6.85;;;3.63;;
48987;SDS011;34799;51.440;-2.534;2023-01-23T12:52:29;9.40;;;3.20;;
48987;SDS011;34799;51.440;-2.534;2023-01-23T12:58:51;9.90;;;4.25;;
48987;SDS011;34799;51.440;-2.534;2023-01-23T13:08:02;8.38;;;4.28;;
48987;SDS011;34799;51.440;-2.534;2023-01-23T13:11:05;23.25;;;5.85;;
48987;SDS011;34799;51.440;-2.534;2023-01-23T13:14:19;9.00;;;3.67;;
48987;SDS011;34799;51.440;-2.534;2023-01-23T13:17:27;9.05;;;3.63;;
48987;SDS011;34799;51.440;-2.534;2023-01-23T13:23:52;7.70;;;3.63;;
48987;SDS011;34799;51.440;-2.534;2023-01-23T13:33:34;5.63;;;2.70;;
48987;SDS011;34799;51.440;-2.534;2023-01-23T13:36:12;7.78;;;3.00;;
48987;SDS011;34799;51.440;-2.534;2023-01-23T13:48:03;8.75;;;3.58;;
48987;SDS011;34799;51.440;-2.534;2023-01-23T13:51:47;7.57;;;3.70;;
48987;SDS011;34799;51.440;-2.534;2023-01-23T13:54:32;7.80;;;3.55;;
48987;SDS011;34799;51.440;-2.534;2023-01-23T13:57:36;9.00;;;3.10;;
48987;SDS011;34799;51.440;-2.534;2023-01-23T14:00:22;12.25;;;3.70;;
48987;SDS011;34799;51.440;-2.534;2023-01-23T14:06:36;7.07;;;3.28;;
48987;SDS011;34799;51.440;-2.534;2023-01-23T14:09:30;6.28;;;2.85;;
48987;SDS011;34799;51.440;-2.534;2023-01-23T14:16:10;5.57;;;2.80;;
48987;SDS011;34799;51.440;-2.534;2023-01-23T14:23:49;6.85;;;2.75;;
48987;SDS011;34799;51.440;-2.534;2023-01-23T14:26:26;10.63;;;2.95;;
48987;SDS011;34799;51.440;-2.534;2023-01-23T14:29:01;16.25;;;3.63;;
48987;SDS011;34799;51.440;-2.534;2023-01-23T14:31:40;6.18;;;2.50;;
48987;SDS011;34799;51.440;-2.534;2023-01-23T14:34:42;6.22;;;2.83;;
48987;SDS011;34799;51.440;-2.534;2023-01-23T14:37:12;21.63;;;3.28;;
48987;SDS011;34799;51.440;-2.534;2023-01-23T14:39:43;8.63;;;3.78;;
48987;SDS011;34799;51.440;-2.534;2023-01-23T14:42:31;7.95;;;3.80;;
48987;SDS011;34799;51.440;-2.534;2023-01-23T14:45:00;9.20;;;3.35;;
48987;SDS011;34799;51.440;-2.534;2023-01-23T14:47:31;9.45;;;3.72;;
48987;SDS011;34799;51.440;-2.534;2023-01-23T14:50:10;4.05;;;2.70;;
48987;SDS011;34799;51.440;-2.534;2023-01-23T14:52:43;8.05;;;3.65;;
48987;SDS011;34799;51.440;-2.534;2023-01-23T14:55:21;10.60;;;4.30;;
48987;SDS011;34799;51.440;-2.534;2023-01-23T14:58:21;8.02;;;3.85;;
48987;SDS011;34799;51.440;-2.534;2023-01-23T15:01:01;16.98;;;5.05;;
48987;SDS011;34799;51.440;-2.534;2023-01-23T15:03:53;8.60;;;4.68;;
48987;SDS011;34799;51.440;-2.534;2023-01-23T15:06:33;9.40;;;5.18;;
48987;SDS011;34799;51.440;-2.534;2023-01-23T15:09:14;10.38;;;5.13;;
48987;SDS011;34799;51.440;-2.534;2023-01-23T15:11:44;12.75;;;6.22;;
48987;SDS011;34799;51.440;-2.534;2023-01-23T15:14:23;9.23;;;4.72;;
48987;SDS011;34799;51.440;-2.534;2023-01-23T15:17:00;9.80;;;4.95;;
48987;SDS011;34799;51.440;-2.534;2023-01-23T15:19:41;9.20;;;5.88;;
48987;SDS011;34799;51.440;-2.534;2023-01-23T15:25:27;17.75;;;6.38;;
48987;SDS011;34799;51.440;-2.534;2023-01-23T15:31:24;14.52;;;6.32;;
48987;SDS011;34799;51.440;-2.534;2023-01-23T15:37:23;13.18;;;6.45;;
48987;SDS011;34799;51.440;-2.534;2023-01-23T15:40:01;13.63;;;6.50;;
48987;SDS011;34799;51.440;-2.534;2023-01-23T15:42:50;11.27;;;6.35;;
48987;SDS011;34799;51.440;-2.534;2023-01-23T15:45:29;12.55;;;6.07;;
48987;SDS011;34799;51.440;-2.534;2023-01-23T15:48:04;12.00;;;6.55;;
48987;SDS011;34799;51.440;-2.534;2023-01-23T15:50:38;14.13;;;6.68;;
48987;SDS011;34799;51.440;-2.534;2023-01-23T15:53:10;13.80;;;6.47;;
48987;SDS011;34799;51.440;-2.534;2023-01-23T15:55:40;20.52;;;7.10;;
48987;SDS011;34799;51.440;-2.534;2023-01-23T15:58:13;10.93;;;6.68;;
48987;SDS011;34799;51.440;-2.534;2023-01-23T16:00:42;11.07;;;5.93;;
48987;SDS011;34799;51.440;-2.534;2023-01-23T16:03:13;11.77;;;6.70;;
48987;SDS011;34799;51.440;-2.534;2023-01-23T16:05:44;12.75;;;6.13;;
48987;SDS011;34799;51.440;-2.534;2023-01-23T16:08:16;12.65;;;7.13;;
48987;SDS011;34799;51.440;-2.534;2023-01-23T16:10:47;16.75;;;6.10;;
48987;SDS011;34799;51.440;-2.534;2023-01-23T16:13:15;12.05;;;6.60;;
48987;SDS011;34799;51.440;-2.534;2023-01-23T16:15:42;14.55;;;6.88;;
48987;SDS011;34799;51.440;-2.534;2023-01-23T16:18:09;12.90;;;6.55;;
48987;SDS011;34799;51.440;-2.534;2023-01-23T16:20:37;12.82;;;6.65;;
48987;SDS011;34799;51.440;-2.534;2023-01-23T16:25:41;13.18;;;6.32;;
48987;SDS011;34799;51.440;-2.534;2023-01-23T16:28:18;11.70;;;6.32;;
48987;SDS011;34799;51.440;-2.534;2023-01-23T16:30:47;12.90;;;5.78;;
48987;SDS011;34799;51.440;-2.534;2023-01-23T16:33:17;10.50;;;5.88;;
48987;SDS011;34799;51.440;-2.534;2023-01-23T16:35:45;12.13;;;5.57;;
48987;SDS011;34799;51.440;-2.534;2023-01-23T16:38:20;13.48;;;6.82;;
48987;SDS011;34799;51.440;-2.534;2023-01-23T16:40:53;12.45;;;6.53;;
48987;SDS011;34799;51.440;-2.534;2023-01-23T16:43:22;11.75;;;5.93;;
48987;SDS011;34799;51.440;-2.534;2023-01-23T16:45:49;14.27;;;6.45;;
48987;SDS011;34799;51.440;-2.534;2023-01-23T16:48:21;13.18;;;6.78;;
48987;SDS011;34799;51.440;-2.534;2023-01-23T16:51:02;13.45;;;6.68;;
48987;SDS011;34799;51.440;-2.534;2023-01-23T16:53:39;10.40;;;6.40;;
48987;SDS011;34799;51.440;-2.534;2023-01-23T16:56:10;17.00;;;7.20;;
48987;SDS011;34799;51.440;-2.534;2023-01-23T16:58:44;11.13;;;5.97;;
48987;SDS011;34799;51.440;-2.534;2023-01-23T17:01:15;15.52;;;6.18;;
48987;SDS011;34799;51.440;-2.534;2023-01-23T17:03:48;11.00;;;5.85;;
48987;SDS011;34799;51.440;-2.534;2023-01-23T17:06:27;10.63;;;5.35;;
48987;SDS011;34799;51.440;-2.534;2023-01-23T17:08:54;13.75;;;6.43;;
48987;SDS011;34799;51.440;-2.534;2023-01-23T17:11:22;14.07;;;6.88;;
48987;SDS011;34799;51.440;-2.534;2023-01-23T17:13:57;13.38;;;6.85;;
48987;SDS011;34799;51.440;-2.534;2023-01-23T17:16:28;14.65;;;6.53;;